Decoded Metar for PATC (TIN CITY in AK, USA) (IATA:TNC) | Meteo·Mobile Aviation Weather
aviador You're here:

PATC Decoded Metar

TIN CITY in AK, USA
Report Time2018-08-22 04:55:00
UTC Time2018-08-22 05:37:18
Flight Rules ifr IFR
Wind020° at 13 kt
W.Decomp.*RWY 34: 11.6 kt HW 5.9 kt RCW
W.Rank020° ranks 2
Current wind is below 020° avg. (20.1)
Visibility9999 m
Phenomena:N/A
Clouds:Broken 005 Hf
Expected CloudBase > 800 ft AGL from Temp-Dew spread
Ceiling500 ft
Temp11°C (ISA -3)
Dew Point09°C (88% RH)
AAT6.1°C
QNH1010 hPa
Density Alt118 ft
Elevation272 ft
Report Wrong Elevation
Raw Report
PATC 220455Z AUTO 02013KT 10SM BKN005 11/09 A2982=

Extra information for PATC:More info

Metar Taf Metar & Taf Last 4 Metars F.Rules Stats Wind Profile Meteogram Temp Stats Airport Information Weather charts Add Link Nearby VenuesMetar ALERT Operation Metar Decoded Social comments

AIRNAV info for PATC